createdAt,value
2019-04-10T00:03:31.795Z,5.40
2019-04-10T00:07:31.176Z,5.20
2019-04-10T00:11:36.875Z,5.30
2019-04-10T00:15:42.354Z,5.20
2019-04-10T00:19:48.053Z,5.20
2019-04-10T00:23:52.619Z,5.20
2019-04-10T00:27:57.211Z,5.20
2019-04-10T00:32:02.363Z,5.30
2019-04-10T00:36:07.963Z,5.10
2019-04-10T00:40:12.912Z,5.10
2019-04-10T00:44:19.452Z,5.00
2019-04-10T00:48:24.270Z,5.00
2019-04-10T00:52:28.874Z,4.90
2019-04-10T00:56:33.500Z,4.90
2019-04-10T01:00:39.235Z,4.80
2019-04-10T01:04:44.664Z,4.80
2019-04-10T01:08:50.948Z,4.70
2019-04-10T01:12:56.559Z,4.60
2019-04-10T01:17:02.154Z,4.60
2019-04-10T01:21:06.927Z,4.60
2019-04-10T01:25:12.692Z,4.60
2019-04-10T01:29:17.598Z,4.40
2019-04-10T01:33:22.807Z,4.20
2019-04-10T01:37:29.059Z,4.40
2019-04-10T01:41:34.242Z,4.30
2019-04-10T01:45:39.982Z,4.30
2019-04-10T01:49:46.878Z,4.50
2019-04-10T01:53:52.353Z,4.20
2019-04-10T01:57:58.883Z,4.10
2019-04-10T02:02:09.538Z,4.10
2019-04-10T02:06:15.234Z,4.00
2019-04-10T02:10:20.488Z,4.00
2019-04-10T02:14:25.508Z,4.00
2019-04-10T02:18:30.462Z,4.00
2019-04-10T02:22:35.083Z,4.10
2019-04-10T02:26:39.686Z,4.00
2019-04-10T02:30:45.867Z,4.00
2019-04-10T02:34:50.856Z,4.00
2019-04-10T02:39:09.998Z,4.00
2019-04-10T02:43:05.447Z,4.10
2019-04-10T02:47:10.378Z,4.10
2019-04-10T02:51:15.631Z,4.10
2019-04-10T02:55:22.804Z,3.90
2019-04-10T02:59:29.057Z,4.10
2019-04-10T03:03:34.335Z,4.00
2019-04-10T03:07:40.389Z,3.90
2019-04-10T03:11:47.486Z,4.00
2019-04-10T03:15:53.480Z,4.00
2019-04-10T03:19:58.898Z,4.00
2019-04-10T03:24:04.230Z,4.10
2019-04-10T03:28:09.158Z,4.20
2019-04-10T03:32:36.401Z,4.20
2019-04-10T03:36:40.161Z,4.20
2019-04-10T03:40:45.835Z,4.30
2019-04-10T03:44:51.404Z,4.30
2019-04-10T03:48:57.685Z,4.30
2019-04-10T03:53:02.480Z,4.20
2019-04-10T03:57:08.102Z,4.10
2019-04-10T04:01:12.721Z,4.20
2019-04-10T04:05:18.306Z,4.20
2019-04-10T04:09:23.799Z,4.20
2019-04-10T04:13:28.678Z,4.20
2019-04-10T04:17:33.363Z,4.10
2019-04-10T04:21:38.071Z,4.30
2019-04-10T04:25:42.841Z,4.40
2019-04-10T04:29:47.791Z,4.30
2019-04-10T04:33:53.311Z,4.40
2019-04-10T04:37:58.363Z,4.40
2019-04-10T04:42:03.218Z,4.30
2019-04-10T04:46:07.972Z,4.50
2019-04-10T04:50:12.774Z,4.50
2019-04-10T04:54:17.382Z,4.40
2019-04-10T04:58:22.268Z,4.30
2019-04-10T05:02:28.085Z,4.30
2019-04-10T05:06:32.992Z,4.30
2019-04-10T05:10:37.866Z,4.30
2019-04-10T05:14:42.699Z,4.30
2019-04-10T05:18:47.723Z,4.40
2019-04-10T05:22:54.556Z,4.50
2019-04-10T05:26:59.227Z,4.60
2019-04-10T05:31:04.387Z,4.50
2019-04-10T05:35:10.097Z,4.60
2019-04-10T05:39:15.202Z,4.60
2019-04-10T05:43:19.980Z,4.90
2019-04-10T05:47:24.798Z,4.70
2019-04-10T05:51:29.693Z,4.90
2019-04-10T05:55:36.297Z,5.00
2019-04-10T05:59:41.639Z,5.20
2019-04-10T06:03:47.229Z,5.10
2019-04-10T06:07:52.153Z,5.30
2019-04-10T06:11:57.350Z,5.70
2019-04-10T06:16:03.466Z,5.60
2019-04-10T06:20:09.154Z,5.30
2019-04-10T06:24:14.221Z,5.50
2019-04-10T06:28:19.137Z,5.40
2019-04-10T06:32:23.921Z,5.50
2019-04-10T06:36:29.154Z,5.80
2019-04-10T06:40:35.466Z,6.20
2019-04-10T06:44:41.744Z,6.00
2019-04-10T06:48:46.562Z,6.10
2019-04-10T06:52:51.367Z,5.90
2019-04-10T06:56:56.575Z,5.90
2019-04-10T07:01:01.945Z,6.10
2019-04-10T07:05:10.275Z,6.30
2019-04-10T07:09:21.443Z,6.50
2019-04-10T07:13:28.187Z,6.80
2019-04-10T07:17:38.353Z,6.50
2019-04-10T07:21:40.520Z,6.20
2019-04-10T07:25:46.905Z,6.40
2019-04-10T07:29:57.294Z,6.20
2019-04-10T07:33:59.824Z,6.70
2019-04-10T07:38:05.531Z,7.20
2019-04-10T07:42:10.375Z,7.60
2019-04-10T07:46:15.261Z,7.80
2019-04-10T07:50:20.574Z,7.80
2019-04-10T07:54:26.664Z,7.80
2019-04-10T07:58:31.534Z,7.50
2019-04-10T08:02:36.630Z,7.80
2019-04-10T08:06:42.320Z,8.10
2019-04-10T08:10:47.315Z,8.30
2019-04-10T08:14:52.108Z,8.30
2019-04-10T08:18:56.922Z,8.00
2019-04-10T08:23:01.671Z,8.10
2019-04-10T08:27:07.393Z,8.60
2019-04-10T08:31:12.762Z,8.10
2019-04-10T08:35:17.580Z,8.50
2019-04-10T08:39:35.262Z,8.50
2019-04-10T08:43:29.560Z,9.60
2019-04-10T08:47:35.429Z,10.30
2019-04-10T08:51:41.538Z,9.20
2019-04-10T08:55:46.502Z,9.50
2019-04-10T08:59:52.074Z,10.20
2019-04-10T09:03:57.405Z,11.80
2019-04-10T09:08:04.434Z,10.00
2019-04-10T09:12:09.443Z,12.40
2019-04-10T09:16:14.270Z,13.70
2019-04-10T09:20:19.401Z,12.10
2019-04-10T09:24:24.383Z,12.00
2019-04-10T09:28:30.615Z,12.70
2019-04-10T09:32:35.412Z,12.00
2019-04-10T09:36:41.649Z,11.90
2019-04-10T09:40:46.939Z,13.90
2019-04-10T09:44:52.796Z,12.70
2019-04-10T09:48:58.383Z,13.50
2019-04-10T09:53:04.200Z,14.10
2019-04-10T09:57:11.095Z,14.50
2019-04-10T10:01:16.183Z,13.00
2019-04-10T10:05:22.407Z,12.50
2019-04-10T10:09:29.172Z,12.70
2019-04-10T10:13:33.949Z,13.60
2019-04-10T10:17:39.207Z,13.00
2019-04-10T10:21:44.904Z,13.90
2019-04-10T10:25:49.858Z,13.40
2019-04-10T10:29:55.978Z,12.20
2019-04-10T10:34:02.063Z,14.30
2019-04-10T10:38:07.788Z,13.50
2019-04-10T10:42:14.357Z,14.60
2019-04-10T10:46:19.809Z,13.10
2019-04-10T10:50:25.612Z,12.40
2019-04-10T10:54:30.676Z,12.00
2019-04-10T10:58:35.718Z,12.00
2019-04-10T11:02:41.496Z,12.90
2019-04-10T11:06:53.983Z,14.10
2019-04-10T11:10:57.267Z,11.80
2019-04-10T11:15:03.676Z,11.60
2019-04-10T11:19:10.759Z,11.60
2019-04-10T11:23:16.193Z,12.50
2019-04-10T11:27:21.377Z,13.10
2019-04-10T11:31:26.349Z,12.30
2019-04-10T11:35:31.659Z,11.90
2019-04-10T11:39:40.312Z,11.50
2019-04-10T11:43:44.611Z,13.40
2019-04-10T11:47:51.260Z,12.80
2019-04-10T11:52:01.283Z,11.80
2019-04-10T11:56:07.966Z,13.00
2019-04-10T12:00:17.502Z,14.70
2019-04-10T12:04:20.227Z,14.80
2019-04-10T12:08:50.419Z,14.60
2019-04-10T12:12:33.384Z,13.00
2019-04-10T12:16:38.991Z,12.60
2019-04-10T12:20:45.134Z,12.30
2019-04-10T12:24:51.305Z,15.50
2019-04-10T12:28:56.468Z,13.60
2019-04-10T12:33:01.182Z,12.60
2019-04-10T12:37:06.940Z,11.80
2019-04-10T12:41:11.967Z,11.50
2019-04-10T12:45:18.188Z,12.00
2019-04-10T12:49:23.434Z,12.30
2019-04-10T12:53:29.644Z,11.50
2019-04-10T12:57:34.909Z,11.20
2019-04-10T13:01:40.790Z,10.90
2019-04-10T13:05:45.782Z,11.80
2019-04-10T13:09:50.737Z,13.70
2019-04-10T13:13:55.642Z,14.00
2019-04-10T13:18:00.380Z,15.50
2019-04-10T13:22:05.525Z,14.10
2019-04-10T13:26:10.920Z,12.00
2019-04-10T13:30:18.717Z,11.20
2019-04-10T13:34:25.143Z,11.30
2019-04-10T13:38:34.039Z,11.40
2019-04-10T13:42:37.459Z,12.50
2019-04-10T13:46:43.422Z,12.70
2019-04-10T13:50:48.764Z,12.30
2019-04-10T13:54:54.555Z,11.50
2019-04-10T13:59:00.347Z,12.40
2019-04-10T14:03:06.001Z,11.40
2019-04-10T14:07:11.553Z,11.60
2019-04-10T14:11:17.399Z,11.60
2019-04-10T14:15:25.734Z,11.80
2019-04-10T14:19:31.893Z,12.00
2019-04-10T14:23:37.458Z,13.00
2019-04-10T14:27:43.051Z,13.00
2019-04-10T14:31:53.137Z,12.10
2019-04-10T14:35:58.055Z,11.00
2019-04-10T14:40:02.742Z,10.90
2019-04-10T14:44:08.293Z,10.70
2019-04-10T14:48:14.158Z,10.90
2019-04-10T14:52:19.119Z,10.70
2019-04-10T14:56:24.341Z,10.80
2019-04-10T15:00:49.647Z,10.40
2019-04-10T15:04:55.427Z,11.40
2019-04-10T15:09:00.276Z,12.00
2019-04-10T15:13:10.222Z,12.10
2019-04-10T15:17:12.613Z,10.50
2019-04-10T15:21:17.406Z,10.60
2019-04-10T15:25:23.005Z,10.10
2019-04-10T15:29:28.089Z,10.10
2019-04-10T15:33:52.182Z,10.00
2019-04-10T15:37:57.775Z,10.10
2019-04-10T15:42:03.628Z,10.60
2019-04-10T15:46:08.775Z,10.10
2019-04-10T15:50:13.900Z,10.20
2019-04-10T15:54:19.375Z,10.10
2019-04-10T15:58:23.976Z,10.50
2019-04-10T16:02:28.638Z,10.90
2019-04-10T16:06:33.468Z,10.70
2019-04-10T16:10:53.701Z,10.40
2019-04-10T16:14:58.400Z,10.20
2019-04-10T16:19:15.341Z,10.40
2019-04-10T16:23:38.201Z,10.80
2019-04-10T16:27:43.346Z,11.20
2019-04-10T16:31:48.382Z,10.90
2019-04-10T16:35:53.063Z,10.30
2019-04-10T16:40:03.307Z,9.50
2019-04-10T16:44:06.760Z,9.80
2019-04-10T16:48:11.534Z,10.00
2019-04-10T16:52:16.814Z,9.50
2019-04-10T16:56:21.731Z,9.40
2019-04-10T17:00:27.051Z,9.20
2019-04-10T17:04:31.950Z,9.20
2019-04-10T17:08:37.867Z,9.10
2019-04-10T17:12:44.185Z,8.90
2019-04-10T17:16:50.339Z,9.00
2019-04-10T17:20:55.254Z,8.80
2019-04-10T17:25:00.114Z,8.90
2019-04-10T17:29:05.084Z,9.00
2019-04-10T17:33:10.991Z,9.10
2019-04-10T17:37:15.959Z,8.90
2019-04-10T17:41:21.918Z,8.90
2019-04-10T17:45:27.886Z,8.80
2019-04-10T17:49:34.103Z,8.70
2019-04-10T17:53:39.958Z,8.60
2019-04-10T17:57:46.406Z,8.70
2019-04-10T18:01:51.814Z,8.70
2019-04-10T18:05:57.188Z,8.50
2019-04-10T18:10:02.491Z,8.50
2019-04-10T18:14:09.193Z,8.50
2019-04-10T18:18:14.020Z,8.30
2019-04-10T18:22:20.654Z,8.20
2019-04-10T18:26:25.742Z,8.10
2019-04-10T18:30:33.000Z,8.20
2019-04-10T18:34:36.938Z,8.10
2019-04-10T18:38:41.805Z,7.90
2019-04-10T18:42:47.403Z,7.80
2019-04-10T18:46:52.266Z,7.80
2019-04-10T18:50:57.299Z,7.70
2019-04-10T18:55:02.132Z,7.60
2019-04-10T18:59:13.342Z,7.60
2019-04-10T19:03:27.667Z,7.70
2019-04-10T19:07:32.456Z,7.50
2019-04-10T19:11:38.305Z,7.40
2019-04-10T19:15:44.690Z,7.30
2019-04-10T19:19:50.794Z,7.30
2019-04-10T19:23:55.832Z,7.30
2019-04-10T19:28:00.546Z,7.30
2019-04-10T19:32:07.964Z,7.20
2019-04-10T19:36:12.794Z,7.30
2019-04-10T19:40:17.460Z,7.10
2019-04-10T19:44:23.204Z,7.10
2019-04-10T19:48:31.007Z,7.20
2019-04-10T19:52:36.200Z,7.10
2019-04-10T19:56:40.992Z,7.20
2019-04-10T20:00:46.503Z,7.40
2019-04-10T20:04:51.234Z,7.30
2019-04-10T20:08:56.341Z,7.10
2019-04-10T20:13:01.405Z,7.00
2019-04-10T20:17:06.595Z,7.00
2019-04-10T20:21:12.064Z,7.10
2019-04-10T20:25:16.823Z,7.00
2019-04-10T20:29:21.445Z,6.90
2019-04-10T20:33:27.089Z,7.00
2019-04-10T20:37:32.274Z,6.90
2019-04-10T20:41:47.597Z,7.00
2019-04-10T20:45:43.642Z,7.00
2019-04-10T20:49:48.274Z,6.90
2019-04-10T20:53:53.427Z,6.90
2019-04-10T20:57:58.036Z,6.80
2019-04-10T21:02:04.101Z,6.70
2019-04-10T21:06:09.033Z,6.70
2019-04-10T21:10:15.023Z,6.70
2019-04-10T21:14:21.101Z,6.60
2019-04-10T21:18:27.126Z,6.60
2019-04-10T21:22:32.770Z,6.50
2019-04-10T21:26:38.818Z,6.50
2019-04-10T21:30:54.954Z,6.40
2019-04-10T21:34:59.783Z,6.40
2019-04-10T21:39:07.425Z,6.40
2019-04-10T21:43:12.301Z,6.20
2019-04-10T21:47:17.272Z,6.40
2019-04-10T21:51:23.181Z,6.30
2019-04-10T21:55:29.036Z,6.40
2019-04-10T21:59:35.314Z,6.50
2019-04-10T22:03:41.355Z,6.50
2019-04-10T22:07:59.057Z,6.40
2019-04-10T22:12:21.986Z,6.40
2019-04-10T22:16:17.837Z,6.50
2019-04-10T22:20:23.556Z,6.40
2019-04-10T22:24:29.764Z,6.30
2019-04-10T22:28:35.063Z,6.40
2019-04-10T22:32:40.689Z,6.50
2019-04-10T22:36:47.075Z,6.50
2019-04-10T22:40:52.026Z,6.30
2019-04-10T22:44:56.836Z,6.30
2019-04-10T22:49:02.009Z,6.40
2019-04-10T22:53:06.976Z,6.20
2019-04-10T22:57:12.515Z,6.20
2019-04-10T23:01:17.185Z,6.10
2019-04-10T23:05:22.648Z,5.90
2019-04-10T23:09:28.482Z,5.90
2019-04-10T23:13:34.138Z,5.90
2019-04-10T23:17:39.068Z,5.90
2019-04-10T23:21:44.876Z,5.90
2019-04-10T23:25:50.887Z,5.80
2019-04-10T23:29:56.891Z,5.80
2019-04-10T23:34:01.655Z,5.60
2019-04-10T23:38:07.017Z,5.60
2019-04-10T23:42:12.757Z,5.60
2019-04-10T23:46:18.085Z,5.60
2019-04-10T23:50:23.902Z,5.40
2019-04-10T23:54:29.068Z,5.40
2019-04-10T23:58:34.005Z,5.50
